createdAt,value
2018-08-13T00:00:56.009Z,19.00
2018-08-13T00:03:24.186Z,18.90
2018-08-13T00:05:52.358Z,18.90
2018-08-13T00:08:20.668Z,19.00
2018-08-13T00:10:48.858Z,19.00
2018-08-13T00:13:17.031Z,19.00
2018-08-13T00:15:45.205Z,19.00
2018-08-13T00:18:13.657Z,19.10
2018-08-13T00:20:41.829Z,19.20
2018-08-13T00:23:10.108Z,19.30
2018-08-13T00:25:38.288Z,19.30
2018-08-13T00:28:07.993Z,19.40
2018-08-13T00:30:36.372Z,19.40
2018-08-13T00:33:05.236Z,19.40
2018-08-13T00:35:33.412Z,19.40
2018-08-13T00:38:01.596Z,19.30
2018-08-13T00:40:29.761Z,19.30
2018-08-13T00:42:57.934Z,19.30
2018-08-13T00:45:26.113Z,19.20
2018-08-13T00:47:54.290Z,19.20
2018-08-13T00:50:22.469Z,19.20
2018-08-13T00:52:50.697Z,19.20
2018-08-13T00:55:18.860Z,19.10
2018-08-13T00:57:47.032Z,19.10
2018-08-13T01:00:17.754Z,19.00
2018-08-13T01:02:46.336Z,19.00
2018-08-13T01:05:15.504Z,19.00
2018-08-13T01:07:43.688Z,19.00
2018-08-13T01:10:13.549Z,19.00
2018-08-13T01:12:41.904Z,18.90
2018-08-13T01:15:11.922Z,18.90
2018-08-13T01:17:41.528Z,18.90
2018-08-13T01:20:11.552Z,18.90
2018-08-13T01:22:39.728Z,18.80
2018-08-13T01:25:10.041Z,18.70
2018-08-13T01:27:38.308Z,18.70
2018-08-13T01:30:06.981Z,18.60
2018-08-13T01:32:35.150Z,18.60
2018-08-13T01:35:03.320Z,18.60
2018-08-13T01:37:31.494Z,18.60
2018-08-13T01:39:59.660Z,18.50
2018-08-13T01:42:27.831Z,18.50
2018-08-13T01:44:56.001Z,18.40
2018-08-13T01:47:24.177Z,18.30
2018-08-13T01:56:49.444Z,18.40
2018-08-13T01:59:17.621Z,18.30
2018-08-13T02:01:45.812Z,18.30
2018-08-13T02:04:13.992Z,18.20
2018-08-13T02:06:42.161Z,18.10
2018-08-13T02:09:11.390Z,18.10
2018-08-13T02:11:39.593Z,18.20
2018-08-13T02:14:07.952Z,18.20
2018-08-13T02:16:36.147Z,18.20
2018-08-13T02:19:04.348Z,18.20
2018-08-13T02:21:32.677Z,18.20
2018-08-13T02:24:00.860Z,18.20
2018-08-13T02:26:29.037Z,18.30
2018-08-13T02:28:57.220Z,18.30
2018-08-13T02:31:25.405Z,18.30
2018-08-13T02:33:53.722Z,18.50
2018-08-13T02:36:21.910Z,18.60
2018-08-13T02:38:50.106Z,18.60
2018-08-13T02:41:18.279Z,18.50
2018-08-13T02:43:46.453Z,18.40
2018-08-13T02:46:14.658Z,18.40
2018-08-13T02:48:42.833Z,18.30
2018-08-13T02:51:11.013Z,18.20
2018-08-13T02:53:39.197Z,18.10
2018-08-13T02:56:07.395Z,18.10
2018-08-13T02:58:35.572Z,18.10
2018-08-13T03:01:03.744Z,18.10
2018-08-13T03:03:31.925Z,18.20
2018-08-13T03:06:00.106Z,18.20
2018-08-13T03:08:28.285Z,18.20
2018-08-13T03:10:56.460Z,18.20
2018-08-13T03:13:25.146Z,18.20
2018-08-13T03:15:53.318Z,18.20
2018-08-13T03:18:25.753Z,18.20
2018-08-13T03:20:53.925Z,18.20
2018-08-13T03:23:22.098Z,18.20
2018-08-13T03:25:50.285Z,18.20
2018-08-13T03:28:18.471Z,18.20
2018-08-13T03:30:46.657Z,18.30
2018-08-13T03:33:14.838Z,18.30
2018-08-13T03:35:43.021Z,18.20
2018-08-13T03:38:11.201Z,18.20
2018-08-13T03:40:39.376Z,18.20
2018-08-13T03:43:07.577Z,18.30
2018-08-13T03:45:35.748Z,18.40
2018-08-13T03:48:03.993Z,18.40
2018-08-13T03:50:32.173Z,18.50
2018-08-13T03:53:00.353Z,18.50
2018-08-13T03:55:28.537Z,18.50
2018-08-13T03:57:56.717Z,18.40
2018-08-13T04:00:24.893Z,18.40
2018-08-13T04:02:53.073Z,18.30
2018-08-13T04:05:21.263Z,18.20
2018-08-13T04:07:49.436Z,18.20
2018-08-13T04:10:17.625Z,18.10
2018-08-13T04:12:45.834Z,18.10
2018-08-13T04:15:14.986Z,18.00
2018-08-13T04:17:43.855Z,18.00
2018-08-13T04:20:13.057Z,18.00
2018-08-13T04:22:41.336Z,18.00
2018-08-13T04:25:10.341Z,18.00
2018-08-13T04:27:39.333Z,18.00
2018-08-13T04:30:10.777Z,18.00
2018-08-13T04:32:38.973Z,18.00
2018-08-13T04:35:07.140Z,18.00
2018-08-13T04:37:35.321Z,17.90
2018-08-13T04:40:04.157Z,18.00
2018-08-13T04:42:32.357Z,17.90
2018-08-13T04:45:00.540Z,17.90
2018-08-13T04:47:28.712Z,17.90
2018-08-13T04:49:56.894Z,17.90
2018-08-13T04:52:25.081Z,18.00
2018-08-13T04:54:53.256Z,18.00
2018-08-13T04:57:21.432Z,18.10
2018-08-13T04:59:49.607Z,18.20
2018-08-13T05:02:17.784Z,18.30
2018-08-13T05:04:45.964Z,18.30
2018-08-13T05:07:14.151Z,18.40
2018-08-13T05:09:42.313Z,18.50
2018-08-13T05:12:10.509Z,18.50
2018-08-13T05:14:38.701Z,18.60
2018-08-13T05:17:06.909Z,18.60
2018-08-13T05:19:35.202Z,18.70
2018-08-13T05:22:03.384Z,18.80
2018-08-13T05:24:31.557Z,18.90
2018-08-13T05:26:59.729Z,19.00
2018-08-13T05:29:28.202Z,19.20
2018-08-13T05:31:56.385Z,19.50
2018-08-13T05:34:24.565Z,20.40
2018-08-13T05:36:52.744Z,21.30
2018-08-13T05:39:20.916Z,22.00
2018-08-13T05:41:49.104Z,22.30
2018-08-13T05:44:17.277Z,22.40
2018-08-13T05:46:45.456Z,22.30
2018-08-13T05:49:13.636Z,22.20
2018-08-13T05:51:41.813Z,22.10
2018-08-13T05:54:09.988Z,22.10
2018-08-13T05:56:38.164Z,22.00
2018-08-13T05:59:06.385Z,22.00
2018-08-13T06:01:34.564Z,22.00
2018-08-13T06:04:02.746Z,22.10
2018-08-13T06:06:30.916Z,22.10
2018-08-13T06:08:59.104Z,22.20
2018-08-13T06:11:27.418Z,22.20
2018-08-13T06:13:55.474Z,22.30
2018-08-13T06:16:23.653Z,22.30
2018-08-13T06:18:51.841Z,22.40
2018-08-13T06:21:20.021Z,22.40
2018-08-13T06:23:48.184Z,22.50
2018-08-13T06:26:16.420Z,22.60
2018-08-13T06:28:44.616Z,22.70
2018-08-13T06:31:12.785Z,22.80
2018-08-13T06:33:40.956Z,22.80
2018-08-13T06:36:09.137Z,23.00
2018-08-13T06:38:37.315Z,23.10
2018-08-13T06:41:05.543Z,23.20
2018-08-13T06:43:33.781Z,23.30
2018-08-13T06:46:01.960Z,23.50
2018-08-13T06:48:30.137Z,23.60
2018-08-13T06:50:58.317Z,23.70
2018-08-13T06:53:26.497Z,23.80
2018-08-13T06:55:54.673Z,23.90
2018-08-13T06:58:22.853Z,24.10
2018-08-13T07:00:51.214Z,24.20
2018-08-13T07:03:19.340Z,24.30
2018-08-13T07:05:47.522Z,24.40
2018-08-13T07:08:15.717Z,24.50
2018-08-13T07:10:43.888Z,24.60
2018-08-13T07:13:12.106Z,24.80
2018-08-13T07:15:40.350Z,25.00
2018-08-13T07:18:08.497Z,25.10
2018-08-13T07:20:36.672Z,25.20
2018-08-13T07:23:04.851Z,25.40
2018-08-13T07:25:33.033Z,25.50
2018-08-13T07:28:01.286Z,25.80
2018-08-13T07:30:29.411Z,26.10
2018-08-13T07:32:57.585Z,26.50
2018-08-13T07:35:25.749Z,26.70
2018-08-13T07:37:53.926Z,26.80
2018-08-13T07:40:22.096Z,26.70
2018-08-13T07:42:50.268Z,26.70
2018-08-13T07:45:18.433Z,26.60
2018-08-13T07:47:46.605Z,26.50
2018-08-13T07:50:15.313Z,26.50
2018-08-13T07:52:43.614Z,26.70
2018-08-13T07:55:12.574Z,26.70
2018-08-13T07:57:41.153Z,26.80
2018-08-13T08:00:12.265Z,27.00
2018-08-13T08:02:40.461Z,27.10
2018-08-13T08:05:08.644Z,27.10
2018-08-13T08:07:36.832Z,27.20
2018-08-13T08:10:07.529Z,27.20
2018-08-13T08:12:35.722Z,27.30
2018-08-13T08:15:05.960Z,27.40
2018-08-13T08:17:34.133Z,27.50
2018-08-13T08:20:02.296Z,27.70
2018-08-13T08:22:30.476Z,28.00
2018-08-13T08:24:58.666Z,28.30
2018-08-13T08:27:26.849Z,28.50
2018-08-13T08:29:55.033Z,28.60
2018-08-13T08:32:23.204Z,28.90
2018-08-13T08:34:51.434Z,28.90
2018-08-13T08:37:19.564Z,28.70
2018-08-13T08:39:47.749Z,28.30
2018-08-13T08:42:15.916Z,28.00
2018-08-13T08:44:44.084Z,28.00
2018-08-13T08:47:12.263Z,28.10
2018-08-13T08:49:40.433Z,28.10
2018-08-13T08:52:08.614Z,27.90
2018-08-13T08:54:36.789Z,27.80
2018-08-13T08:57:05.185Z,27.80
2018-08-13T08:59:33.361Z,27.70
2018-08-13T09:02:01.553Z,27.60
2018-08-13T09:04:29.740Z,27.50
2018-08-13T09:06:57.920Z,27.50
2018-08-13T09:09:26.096Z,27.80
2018-08-13T09:11:54.284Z,28.00
2018-08-13T09:14:22.465Z,28.10
2018-08-13T09:16:51.684Z,28.20
2018-08-13T09:19:31.381Z,28.20
2018-08-13T09:22:09.721Z,28.00
2018-08-13T09:24:49.316Z,27.90
2018-08-13T09:27:28.984Z,28.20
2018-08-13T09:30:08.569Z,28.50
2018-08-13T09:32:48.388Z,28.60
2018-08-13T09:35:21.944Z,28.70
2018-08-13T09:37:50.121Z,28.80
2018-08-13T09:40:18.289Z,28.90
2018-08-13T09:42:46.469Z,29.00
2018-08-13T09:45:14.647Z,29.20
2018-08-13T09:47:42.812Z,29.30
2018-08-13T09:50:13.297Z,29.30
2018-08-13T09:52:41.984Z,29.30
2018-08-13T09:55:10.213Z,29.30
2018-08-13T09:57:38.385Z,29.20
2018-08-13T10:00:08.589Z,29.20
2018-08-13T10:02:36.760Z,29.40
2018-08-13T10:05:04.968Z,29.60
2018-08-13T10:07:33.153Z,29.80
2018-08-13T10:10:01.331Z,29.70
2018-08-13T10:12:29.500Z,29.70
2018-08-13T10:14:57.680Z,29.80
2018-08-13T10:17:25.877Z,29.80
2018-08-13T10:19:54.048Z,29.90
2018-08-13T10:22:22.260Z,29.90
2018-08-13T10:24:50.451Z,30.10
2018-08-13T10:27:18.613Z,30.10
2018-08-13T10:29:46.801Z,30.00
2018-08-13T10:32:14.986Z,30.10
2018-08-13T10:34:43.145Z,30.20
2018-08-13T10:37:11.313Z,30.20
2018-08-13T10:39:39.495Z,30.10
2018-08-13T10:42:07.741Z,30.00
2018-08-13T10:44:35.921Z,30.10
2018-08-13T10:47:04.097Z,30.00
2018-08-13T10:49:32.327Z,30.00
2018-08-13T10:52:00.503Z,29.90
2018-08-13T10:54:28.672Z,30.00
2018-08-13T10:56:56.853Z,29.90
2018-08-13T10:59:25.029Z,30.00
2018-08-13T11:01:53.216Z,30.00
2018-08-13T11:04:21.403Z,30.00
2018-08-13T11:06:49.585Z,30.00
2018-08-13T11:09:17.768Z,30.10
2018-08-13T11:11:45.949Z,30.30
2018-08-13T11:14:14.132Z,30.30
2018-08-13T11:16:42.305Z,30.40
2018-08-13T11:19:10.505Z,30.40
2018-08-13T11:21:38.699Z,30.40
2018-08-13T11:24:06.881Z,30.30
2018-08-13T11:26:35.056Z,30.00
2018-08-13T11:29:03.232Z,30.00
2018-08-13T11:31:31.453Z,30.00
2018-08-13T11:33:59.625Z,30.00
2018-08-13T11:36:27.800Z,29.90
2018-08-13T11:38:55.974Z,29.90
2018-08-13T11:41:24.153Z,30.00
2018-08-13T11:43:52.320Z,29.90
2018-08-13T11:46:20.660Z,29.90
2018-08-13T11:48:48.798Z,29.90
2018-08-13T11:51:16.965Z,30.00
2018-08-13T11:53:45.143Z,30.10
2018-08-13T11:56:13.326Z,30.00
2018-08-13T11:58:41.498Z,30.20
2018-08-13T12:01:09.755Z,30.20
2018-08-13T12:03:37.856Z,30.20
2018-08-13T12:06:06.105Z,30.30
2018-08-13T12:08:34.337Z,30.30
2018-08-13T12:11:02.470Z,30.60
2018-08-13T12:13:30.644Z,30.70
2018-08-13T12:15:58.812Z,30.80
2018-08-13T12:18:27.002Z,30.80
2018-08-13T12:20:55.173Z,30.40
2018-08-13T12:23:23.369Z,30.10
2018-08-13T12:25:51.545Z,30.10
2018-08-13T12:28:19.720Z,30.20
2018-08-13T12:30:47.905Z,30.10
2018-08-13T12:33:16.100Z,30.00
2018-08-13T12:35:44.314Z,29.90
2018-08-13T12:38:12.494Z,29.70
2018-08-13T12:40:40.679Z,29.40
2018-08-13T12:43:08.861Z,29.30
2018-08-13T12:45:37.065Z,29.20
2018-08-13T12:48:05.749Z,29.20
2018-08-13T12:50:33.919Z,29.20
2018-08-13T12:53:02.101Z,29.00
2018-08-13T12:55:30.288Z,28.90
2018-08-13T12:57:58.457Z,28.90
2018-08-13T13:00:26.633Z,29.20
2018-08-13T13:02:54.809Z,29.50
2018-08-13T13:05:22.986Z,29.60
2018-08-13T13:07:51.181Z,29.30
2018-08-13T13:10:19.357Z,29.20
2018-08-13T13:12:47.529Z,29.20
2018-08-13T13:15:17.541Z,29.00
2018-08-13T13:17:45.732Z,28.80
2018-08-13T13:20:17.050Z,28.90
2018-08-13T13:22:45.478Z,28.80
2018-08-13T13:25:13.751Z,28.90
2018-08-13T13:27:41.930Z,28.80
2018-08-13T13:30:12.749Z,28.90
2018-08-13T13:32:41.125Z,28.70
2018-08-13T13:35:10.620Z,28.80
2018-08-13T13:37:38.796Z,28.90
2018-08-13T13:40:08.770Z,28.70
2018-08-13T13:42:37.413Z,28.50
2018-08-13T13:45:05.957Z,28.30
2018-08-13T13:47:34.269Z,28.10
2018-08-13T13:50:02.449Z,27.90
2018-08-13T13:52:30.632Z,27.70
2018-08-13T13:54:58.816Z,27.50
2018-08-13T13:57:27.014Z,27.30
2018-08-13T14:01:19.655Z,27.20
2018-08-13T14:03:47.862Z,27.00
2018-08-13T14:06:16.051Z,26.60
2018-08-13T14:08:44.209Z,26.20
2018-08-13T14:11:12.385Z,25.90
2018-08-13T14:13:40.574Z,25.50
2018-08-13T14:16:08.757Z,25.30
2018-08-13T14:18:36.978Z,25.10
2018-08-13T14:21:05.209Z,24.90
2018-08-13T14:23:33.421Z,24.20
2018-08-13T14:26:01.609Z,22.90
2018-08-13T14:28:29.788Z,21.50
2018-08-13T14:30:57.976Z,20.20
2018-08-13T14:33:26.145Z,19.40
2018-08-13T14:35:54.312Z,18.60
2018-08-13T14:38:22.501Z,18.10
2018-08-13T14:40:50.711Z,17.90
2018-08-13T14:43:18.882Z,17.80
2018-08-13T14:45:47.061Z,17.80
2018-08-13T14:48:15.265Z,17.70
2018-08-13T14:50:43.449Z,17.80
2018-08-13T14:53:11.628Z,17.90
2018-08-13T14:55:39.796Z,18.00
2018-08-13T14:58:07.973Z,18.00
2018-08-13T15:00:37.562Z,18.00
2018-08-13T15:03:09.829Z,18.10
2018-08-13T15:05:38.346Z,18.10
2018-08-13T15:08:06.510Z,18.10
2018-08-13T15:10:34.693Z,18.20
2018-08-13T15:13:02.913Z,18.20
2018-08-13T15:15:31.053Z,18.20
2018-08-13T15:17:59.224Z,18.10
2018-08-13T15:20:29.745Z,18.10
2018-08-13T15:22:57.920Z,18.20
2018-08-13T15:25:26.328Z,18.20
2018-08-13T15:27:54.585Z,18.20
2018-08-13T15:30:23.236Z,18.30
2018-08-13T15:32:52.522Z,18.30
2018-08-13T15:35:20.812Z,18.30
2018-08-13T15:37:49.295Z,18.20
2018-08-13T15:40:17.673Z,18.20
2018-08-13T15:42:45.856Z,18.20
2018-08-13T15:45:17.333Z,18.20
2018-08-13T15:47:45.985Z,18.20
2018-08-13T15:50:15.801Z,18.20
2018-08-13T15:52:44.289Z,18.10
2018-08-13T15:55:12.677Z,18.10
2018-08-13T15:57:41.557Z,18.20
2018-08-13T16:00:11.852Z,18.20
2018-08-13T16:02:40.029Z,18.10
2018-08-13T16:05:09.265Z,18.20
2018-08-13T16:07:37.451Z,18.10
2018-08-13T16:10:08.037Z,18.10
2018-08-13T16:12:36.436Z,18.10
2018-08-13T16:15:05.412Z,18.20
2018-08-13T16:17:33.716Z,18.20
2018-08-13T16:20:01.928Z,18.20
2018-08-13T16:22:30.115Z,18.20
2018-08-13T16:24:58.289Z,18.20
2018-08-13T16:27:26.468Z,18.20
2018-08-13T16:29:54.652Z,18.10
2018-08-13T16:32:22.838Z,18.10
2018-08-13T16:34:51.008Z,18.10
2018-08-13T16:37:19.193Z,18.10
2018-08-13T16:39:47.417Z,18.10
2018-08-13T16:42:15.593Z,18.10
2018-08-13T16:44:43.769Z,18.10
2018-08-13T16:47:11.949Z,18.20
2018-08-13T16:49:40.130Z,18.10
2018-08-13T16:52:08.313Z,18.10
2018-08-13T16:54:36.750Z,18.10
2018-08-13T16:57:05.511Z,18.10
2018-08-13T16:59:33.694Z,18.10
2018-08-13T17:02:01.861Z,18.20
2018-08-13T17:04:30.045Z,18.20
2018-08-13T17:06:58.216Z,18.20
2018-08-13T17:09:26.402Z,18.20
2018-08-13T17:11:54.577Z,18.20
2018-08-13T17:14:22.954Z,18.30
2018-08-13T17:16:50.945Z,18.30
2018-08-13T17:19:19.121Z,18.30
2018-08-13T17:21:47.321Z,18.40
2018-08-13T17:24:15.563Z,18.40
2018-08-13T17:26:43.940Z,18.50
2018-08-13T17:29:12.113Z,18.50
2018-08-13T17:31:40.314Z,18.50
2018-08-13T17:34:09.593Z,18.50
2018-08-13T17:36:38.181Z,18.60
2018-08-13T17:39:09.626Z,18.60
2018-08-13T17:41:37.985Z,18.70
2018-08-13T17:44:06.157Z,18.70
2018-08-13T17:46:34.342Z,18.70
2018-08-13T17:49:02.512Z,18.80
2018-08-13T17:51:30.676Z,18.70
2018-08-13T17:53:58.852Z,18.70
2018-08-13T17:56:27.045Z,18.70
2018-08-13T17:58:55.209Z,18.70
2018-08-13T18:01:23.383Z,18.60
2018-08-13T18:03:51.993Z,18.50
2018-08-13T18:06:20.164Z,18.50
2018-08-13T18:08:48.341Z,18.50
2018-08-13T18:11:16.536Z,18.40
2018-08-13T18:13:44.704Z,18.30
2018-08-13T18:16:13.256Z,18.20
2018-08-13T18:18:41.479Z,18.20
2018-08-13T18:21:09.674Z,18.10
2018-08-13T18:23:37.856Z,18.10
2018-08-13T18:26:06.025Z,18.00
2018-08-13T18:28:34.281Z,18.00
2018-08-13T18:31:02.457Z,18.00
2018-08-13T18:33:31.053Z,17.90
2018-08-13T18:35:59.220Z,17.90
2018-08-13T18:38:27.397Z,17.90
2018-08-13T18:40:55.582Z,17.80
2018-08-13T18:43:23.764Z,17.80
2018-08-13T18:45:51.956Z,17.80
2018-08-13T18:48:20.137Z,17.80
2018-08-13T18:50:48.308Z,17.80
2018-08-13T18:53:16.488Z,17.80
2018-08-13T18:55:44.660Z,17.80
2018-08-13T18:58:12.833Z,17.80
2018-08-13T19:00:41.029Z,17.70
2018-08-13T19:03:09.205Z,17.70
2018-08-13T19:05:37.401Z,17.60
2018-08-13T19:08:05.925Z,17.60
2018-08-13T19:10:34.101Z,17.60
2018-08-13T19:13:02.270Z,17.60
2018-08-13T19:15:30.457Z,17.60
2018-08-13T19:17:58.655Z,17.60
2018-08-13T19:20:26.820Z,17.60
2018-08-13T19:22:55.019Z,17.60
2018-08-13T19:25:25.148Z,17.60
2018-08-13T19:27:53.329Z,17.60
2018-08-13T19:30:22.521Z,17.60
2018-08-13T19:32:51.205Z,17.60
2018-08-13T19:35:19.576Z,17.60
2018-08-13T19:37:48.064Z,17.60
2018-08-13T19:40:18.375Z,17.50
2018-08-13T19:42:47.452Z,17.50
2018-08-13T19:45:16.589Z,17.50
2018-08-13T19:47:45.075Z,17.50
2018-08-13T19:50:13.630Z,17.50
2018-08-13T19:52:43.056Z,17.50
2018-08-13T19:55:11.641Z,17.60
2018-08-13T19:57:40.230Z,17.50
2018-08-13T20:00:16.798Z,17.50
2018-08-13T20:02:45.293Z,17.50
2018-08-13T20:05:13.465Z,17.50
2018-08-13T20:07:41.999Z,17.50
2018-08-13T20:10:12.267Z,17.50
2018-08-13T20:12:40.493Z,17.50
2018-08-13T20:15:09.121Z,17.50
2018-08-13T20:17:37.659Z,17.40
2018-08-13T20:20:08.585Z,17.50
2018-08-13T20:22:36.769Z,17.40
2018-08-13T20:25:05.522Z,17.50
2018-08-13T20:27:33.889Z,17.50
2018-08-13T20:30:02.116Z,17.50
2018-08-13T20:32:30.296Z,17.40
2018-08-13T20:34:58.477Z,17.40
2018-08-13T20:37:26.673Z,17.40
2018-08-13T20:39:54.856Z,17.40
2018-08-13T20:42:23.029Z,17.40
2018-08-13T20:44:51.217Z,17.30
2018-08-13T20:47:19.400Z,17.30
2018-08-13T20:49:47.581Z,17.30
2018-08-13T20:52:15.756Z,17.30
2018-08-13T20:54:43.940Z,17.40
2018-08-13T20:57:12.121Z,17.40
2018-08-13T20:59:40.309Z,17.40
2018-08-13T21:02:08.487Z,17.40
2018-08-13T21:04:36.673Z,17.40
2018-08-13T21:07:04.965Z,17.40
2018-08-13T21:09:33.157Z,17.40
2018-08-13T21:12:01.339Z,17.40
2018-08-13T21:14:29.526Z,17.40
2018-08-13T21:16:57.701Z,17.30
2018-08-13T21:19:25.881Z,17.30
2018-08-13T21:21:54.062Z,17.30
2018-08-13T21:24:22.244Z,17.30
2018-08-13T21:26:50.440Z,17.30
2018-08-13T21:29:18.616Z,17.30
2018-08-13T21:31:46.805Z,17.30
2018-08-13T21:34:14.992Z,17.30
2018-08-13T21:36:43.173Z,17.30
2018-08-13T21:39:11.987Z,17.30
2018-08-13T21:41:40.673Z,17.30
2018-08-13T21:44:08.954Z,17.40
2018-08-13T21:46:37.224Z,17.40
2018-08-13T21:49:05.509Z,17.40
2018-08-13T21:51:33.688Z,17.40
2018-08-13T21:54:01.886Z,17.40
2018-08-13T21:56:30.157Z,17.50
2018-08-13T21:58:58.344Z,17.50
2018-08-13T22:01:32.042Z,17.50
2018-08-13T22:04:00.225Z,17.50
2018-08-13T22:06:28.408Z,17.50
2018-08-13T22:08:56.589Z,17.50
2018-08-13T22:11:24.781Z,17.50
2018-08-13T22:13:52.985Z,17.50
2018-08-13T22:16:21.143Z,17.50
2018-08-13T22:18:49.312Z,17.40
2018-08-13T22:21:17.494Z,17.40
2018-08-13T22:23:57.029Z,17.50
2018-08-13T22:26:25.336Z,17.50
2018-08-13T22:28:53.517Z,17.50
2018-08-13T22:31:21.807Z,17.50
2018-08-13T22:33:49.972Z,17.50
2018-08-13T22:36:18.173Z,17.40
2018-08-13T22:38:46.357Z,17.40
2018-08-13T22:41:14.542Z,17.40
2018-08-13T22:43:42.717Z,17.40
2018-08-13T22:46:10.912Z,17.30
2018-08-13T22:48:39.104Z,17.30
2018-08-13T22:51:07.283Z,17.20
2018-08-13T22:53:35.467Z,17.20
2018-08-13T22:56:03.649Z,17.20
2018-08-13T22:58:31.935Z,17.10
2018-08-13T23:01:00.120Z,17.10
2018-08-13T23:03:28.285Z,17.00
2018-08-13T23:05:56.471Z,17.00
2018-08-13T23:08:24.684Z,17.00
2018-08-13T23:10:52.833Z,17.00
2018-08-13T23:13:21.036Z,17.00
2018-08-13T23:15:49.213Z,16.90
2018-08-13T23:18:17.385Z,16.90
2018-08-13T23:20:45.557Z,16.90
2018-08-13T23:23:13.744Z,16.90
2018-08-13T23:25:41.913Z,16.80
2018-08-13T23:28:11.109Z,16.80
2018-08-13T23:30:39.309Z,16.80
2018-08-13T23:33:07.860Z,16.70
2018-08-13T23:35:36.094Z,16.70
2018-08-13T23:38:04.416Z,16.60
2018-08-13T23:40:33.365Z,16.60
2018-08-13T23:43:01.644Z,16.60
2018-08-13T23:45:31.224Z,16.60
2018-08-13T23:48:00.425Z,16.60
2018-08-13T23:50:28.913Z,16.50
2018-08-13T23:52:59.325Z,16.50
2018-08-13T23:55:30.277Z,16.50
2018-08-13T23:57:58.863Z,16.40
